createdAt,value
2023-03-20T00:00:37.363Z,31.83
2023-03-20T00:03:04.547Z,33.23
2023-03-20T00:05:31.971Z,33.00
2023-03-20T00:07:59.560Z,36.60
2023-03-20T00:10:35.753Z,37.30
2023-03-20T00:13:03.557Z,33.13
2023-03-20T00:15:35.576Z,37.17
2023-03-20T00:18:02.772Z,34.30
2023-03-20T00:20:31.548Z,38.40
2023-03-20T00:22:58.788Z,38.47
2023-03-20T00:25:26.593Z,36.67
2023-03-20T00:27:53.918Z,38.50
2023-03-20T00:30:24.539Z,39.47
2023-03-20T00:32:53.551Z,33.60
2023-03-20T00:35:26.352Z,31.77
2023-03-20T00:37:53.428Z,34.37
2023-03-20T00:40:21.766Z,39.87
2023-03-20T00:42:54.132Z,34.77
2023-03-20T00:45:21.526Z,35.73
2023-03-20T00:47:51.401Z,35.13
2023-03-20T00:50:21.840Z,36.00
2023-03-20T00:52:49.320Z,34.03
2023-03-20T00:55:16.777Z,32.07
2023-03-20T00:57:48.653Z,30.07
2023-03-20T01:00:27.735Z,31.00
2023-03-20T01:02:56.695Z,32.23
2023-03-20T01:05:25.608Z,32.50
2023-03-20T01:07:54.364Z,36.50
2023-03-20T01:10:32.128Z,30.73
2023-03-20T01:13:01.375Z,33.70
2023-03-20T01:15:32.579Z,32.50
2023-03-20T01:17:59.657Z,28.83
2023-03-20T01:20:29.213Z,31.47
2023-03-20T01:22:56.127Z,33.33
2023-03-20T01:25:23.216Z,35.70
2023-03-20T01:27:52.569Z,38.13
2023-03-20T01:30:23.735Z,42.87
2023-03-20T01:32:51.012Z,37.00
2023-03-20T01:35:22.763Z,41.73
2023-03-20T01:37:50.250Z,38.70
2023-03-20T01:40:41.955Z,41.77
2023-03-20T01:43:18.501Z,42.10
2023-03-20T01:46:22.669Z,34.90
2023-03-20T01:48:55.077Z,38.37
2023-03-20T01:51:32.800Z,39.67
2023-03-20T01:54:11.952Z,46.00
2023-03-20T01:57:04.304Z,37.67
2023-03-20T01:59:39.188Z,36.93
2023-03-20T02:02:07.270Z,40.43
2023-03-20T02:04:45.751Z,37.33
2023-03-20T02:07:18.190Z,41.23
2023-03-20T02:10:11.314Z,39.80
2023-03-20T02:13:02.875Z,39.07
2023-03-20T02:15:36.586Z,36.33
2023-03-20T02:18:11.299Z,45.20
2023-03-20T02:21:08.715Z,44.43
2023-03-20T02:24:27.097Z,38.13
2023-03-20T02:26:54.812Z,34.27
2023-03-20T02:29:22.485Z,42.30
2023-03-20T02:32:28.761Z,38.37
2023-03-20T02:35:14.092Z,37.23
2023-03-20T02:38:05.699Z,32.23
2023-03-20T02:40:44.216Z,41.87
2023-03-20T02:43:28.874Z,34.53
2023-03-20T02:46:18.695Z,32.20
2023-03-20T02:49:00.553Z,32.70
2023-03-20T02:51:54.656Z,34.17
2023-03-20T02:54:34.435Z,37.70
2023-03-20T02:57:26.640Z,42.03
2023-03-20T03:00:09.741Z,36.47
2023-03-20T03:02:50.676Z,39.23
2023-03-20T03:05:24.469Z,35.27
2023-03-20T03:07:55.756Z,34.00
2023-03-20T03:10:29.791Z,36.80
2023-03-20T03:12:59.696Z,39.70
2023-03-20T03:15:34.378Z,35.10
2023-03-20T03:18:06.345Z,35.07
2023-03-20T03:20:37.895Z,39.03
2023-03-20T03:23:06.588Z,40.80
2023-03-20T03:25:38.025Z,37.13
2023-03-20T03:28:45.667Z,32.77
2023-03-20T03:31:15.568Z,36.70
2023-03-20T03:33:46.825Z,39.83
2023-03-20T03:37:07.367Z,45.90
2023-03-20T03:39:52.769Z,44.77
2023-03-20T03:42:33.607Z,36.67
2023-03-20T03:45:10.362Z,41.00
2023-03-20T03:47:55.791Z,41.60
2023-03-20T03:50:29.712Z,47.60
2023-03-20T03:53:03.358Z,43.70
2023-03-20T03:55:36.384Z,50.93
2023-03-20T03:58:30.272Z,55.87
2023-03-20T04:00:59.821Z,50.00
2023-03-20T04:03:32.856Z,47.93
2023-03-20T04:06:02.934Z,44.50
2023-03-20T04:08:30.316Z,45.03
2023-03-20T04:10:59.925Z,48.57
2023-03-20T04:13:26.992Z,51.13
2023-03-20T04:15:54.183Z,50.63
2023-03-20T04:18:21.587Z,49.07
2023-03-20T04:20:48.924Z,51.30
2023-03-20T04:23:17.073Z,45.60
2023-03-20T04:25:44.341Z,49.63
2023-03-20T04:28:11.844Z,46.13
2023-03-20T04:30:59.512Z,45.17
2023-03-20T04:33:37.789Z,45.83
2023-03-20T04:36:13.692Z,41.73
2023-03-20T04:38:41.251Z,37.53
2023-03-20T04:41:08.785Z,42.90
2023-03-20T04:43:36.145Z,43.30
2023-03-20T04:46:03.466Z,45.23
2023-03-20T04:48:32.153Z,41.97
2023-03-20T04:50:59.303Z,40.00
2023-03-20T04:53:38.317Z,35.70
2023-03-20T04:56:05.680Z,38.37
2023-03-20T04:58:35.803Z,38.53
2023-03-20T05:01:03.720Z,35.93
2023-03-20T05:03:30.867Z,33.60
2023-03-20T05:05:57.711Z,33.63
2023-03-20T05:08:25.958Z,38.33
2023-03-20T05:10:56.732Z,37.07
2023-03-20T05:13:42.666Z,36.00
2023-03-20T05:16:45.118Z,42.40
2023-03-20T05:19:21.376Z,33.50
2023-03-20T05:22:11.808Z,36.83
2023-03-20T05:24:57.339Z,35.70
2023-03-20T05:27:44.798Z,36.13
2023-03-20T05:30:30.650Z,40.13
2023-03-20T05:33:21.590Z,38.47
2023-03-20T05:36:07.988Z,33.43
2023-03-20T05:38:49.706Z,35.93
2023-03-20T05:41:25.800Z,34.90
2023-03-20T05:44:11.178Z,36.50
2023-03-20T05:46:56.844Z,34.83
2023-03-20T05:50:02.830Z,40.72
2023-03-20T05:52:37.896Z,34.07
2023-03-20T05:55:20.272Z,35.73
2023-03-20T05:58:13.723Z,33.93
2023-03-20T06:01:06.946Z,35.30
2023-03-20T06:03:55.985Z,39.77
2023-03-20T06:06:43.071Z,37.53
2023-03-20T06:09:10.425Z,33.73
2023-03-20T06:11:37.803Z,38.53
2023-03-20T06:14:06.084Z,35.60
2023-03-20T06:16:38.436Z,41.27
2023-03-20T06:19:05.633Z,38.90
2023-03-20T06:21:33.034Z,41.43
2023-03-20T06:24:00.530Z,42.67
2023-03-20T06:26:28.762Z,41.63
2023-03-20T06:29:06.209Z,41.90
2023-03-20T06:31:33.862Z,38.73
2023-03-20T06:34:02.724Z,43.90
2023-03-20T06:36:31.361Z,37.13
2023-03-20T06:39:04.538Z,37.70
2023-03-20T06:41:34.862Z,35.07
2023-03-20T06:44:05.956Z,37.13
2023-03-20T06:46:52.936Z,36.90
2023-03-20T06:49:20.082Z,32.43
2023-03-20T06:51:48.231Z,29.63
2023-03-20T06:54:22.726Z,31.77
2023-03-20T06:56:49.864Z,27.93
2023-03-20T06:59:16.913Z,30.60
2023-03-20T07:01:44.755Z,26.17
2023-03-20T07:04:12.716Z,23.50
2023-03-20T07:06:46.824Z,29.97
2023-03-20T07:09:14.145Z,27.17
2023-03-20T07:11:41.584Z,23.83
2023-03-20T07:14:09.281Z,21.93
2023-03-20T07:17:05.292Z,22.37
2023-03-20T07:19:34.612Z,22.20
2023-03-20T07:22:06.167Z,22.17
2023-03-20T07:24:38.512Z,20.20
2023-03-20T07:27:05.764Z,20.53
2023-03-20T07:29:34.466Z,19.73
2023-03-20T07:32:02.699Z,20.30
2023-03-20T07:34:33.814Z,18.13
2023-03-20T07:37:01.281Z,15.97
2023-03-20T07:39:29.293Z,14.23
2023-03-20T07:42:19.304Z,16.13
2023-03-20T07:44:57.304Z,17.20
2023-03-20T07:47:24.370Z,14.80
2023-03-20T07:49:51.513Z,17.13
2023-03-20T07:52:18.578Z,18.43
2023-03-20T07:54:45.977Z,13.47
2023-03-20T07:57:14.512Z,18.07
2023-03-20T07:59:41.083Z,17.13
2023-03-20T08:02:08.394Z,17.73
2023-03-20T08:04:35.453Z,18.93
2023-03-20T08:07:02.666Z,19.20
2023-03-20T08:09:29.753Z,19.30
2023-03-20T08:11:56.779Z,20.97
2023-03-20T08:14:23.929Z,20.03
2023-03-20T08:17:06.242Z,19.83
2023-03-20T08:19:38.263Z,21.70
2023-03-20T08:22:05.523Z,22.50
2023-03-20T08:24:32.553Z,22.10
2023-03-20T08:26:59.965Z,20.73
2023-03-20T08:29:27.116Z,18.87
2023-03-20T08:31:54.154Z,22.83
2023-03-20T08:34:23.892Z,27.43
2023-03-20T08:36:52.369Z,21.00
2023-03-20T08:39:19.688Z,21.87
2023-03-20T08:41:46.879Z,20.90
2023-03-20T08:44:13.996Z,21.23
2023-03-20T08:46:41.096Z,20.40
2023-03-20T08:49:08.273Z,16.50
2023-03-20T08:51:35.472Z,15.57
2023-03-20T08:54:02.496Z,16.80
2023-03-20T08:56:29.583Z,17.17
2023-03-20T08:58:56.727Z,19.30
2023-03-20T09:01:28.433Z,16.87
2023-03-20T09:03:59.721Z,18.87
2023-03-20T09:06:27.019Z,18.53
2023-03-20T09:08:55.379Z,13.70
2023-03-20T09:11:22.430Z,14.77
2023-03-20T09:13:49.489Z,13.00
2023-03-20T09:16:16.609Z,12.70
2023-03-20T09:18:43.653Z,13.67
2023-03-20T09:21:10.308Z,12.70
2023-03-20T09:23:37.331Z,14.57
2023-03-20T09:26:04.490Z,12.73
2023-03-20T09:28:31.522Z,13.37
2023-03-20T09:30:59.103Z,10.40
2023-03-20T09:33:26.286Z,11.97
2023-03-20T09:35:53.591Z,16.37
2023-03-20T09:38:21.201Z,13.00
2023-03-20T09:40:56.841Z,10.17
2023-03-20T09:44:00.562Z,11.43
2023-03-20T09:46:33.529Z,11.40
2023-03-20T09:49:12.518Z,13.03
2023-03-20T09:51:56.129Z,12.13
2023-03-20T09:54:53.111Z,11.57
2023-03-20T09:57:28.080Z,11.43
2023-03-20T10:00:07.388Z,10.50
2023-03-20T10:03:01.428Z,11.43
2023-03-20T10:05:38.090Z,12.60
2023-03-20T10:08:07.617Z,16.50
2023-03-20T10:11:06.678Z,10.33
2023-03-20T10:13:58.355Z,9.60
2023-03-20T10:16:31.165Z,12.13
2023-03-20T10:19:07.724Z,12.10
2023-03-20T10:21:44.231Z,10.33
2023-03-20T10:24:31.856Z,9.20
2023-03-20T10:27:05.868Z,10.60
2023-03-20T10:29:52.763Z,9.73
2023-03-20T10:32:29.720Z,11.37
2023-03-20T10:35:33.528Z,9.10
2023-03-20T10:38:25.763Z,10.67
2023-03-20T10:40:54.102Z,9.73
2023-03-20T10:43:30.280Z,9.67
2023-03-20T10:46:20.201Z,9.63
2023-03-20T10:49:02.547Z,9.90
2023-03-20T10:51:56.723Z,7.50
2023-03-20T10:54:29.810Z,9.90
2023-03-20T10:57:00.116Z,8.47
2023-03-20T10:59:29.708Z,7.90
2023-03-20T11:01:56.767Z,6.57
2023-03-20T11:04:24.040Z,10.53
2023-03-20T11:07:26.854Z,7.80
2023-03-20T11:10:05.361Z,6.90
2023-03-20T11:12:53.291Z,8.90
2023-03-20T11:15:26.908Z,10.30
2023-03-20T11:17:59.512Z,10.60
2023-03-20T11:20:32.099Z,9.23
2023-03-20T11:23:02.823Z,7.83
2023-03-20T11:25:36.775Z,6.17
2023-03-20T11:28:24.809Z,7.27
2023-03-20T11:31:04.833Z,7.93
2023-03-20T11:33:32.758Z,9.23
2023-03-20T11:35:59.909Z,6.87
2023-03-20T11:38:27.047Z,6.37
2023-03-20T11:40:55.588Z,7.83
2023-03-20T11:43:24.637Z,6.93
2023-03-20T11:45:56.794Z,8.33
2023-03-20T11:48:25.990Z,8.73
2023-03-20T11:51:03.771Z,6.47
2023-03-20T11:53:41.378Z,6.87
2023-03-20T11:56:12.503Z,6.23
2023-03-20T11:59:06.000Z,8.83
2023-03-20T12:01:46.976Z,7.23
2023-03-20T12:04:17.928Z,6.63
2023-03-20T12:07:12.469Z,9.80
2023-03-20T12:09:51.218Z,10.77
2023-03-20T12:12:45.541Z,12.40
2023-03-20T12:15:36.954Z,12.80
2023-03-20T12:18:35.027Z,10.17
2023-03-20T12:21:07.753Z,7.10
2023-03-20T12:23:43.767Z,8.70
2023-03-20T12:26:38.721Z,7.83
2023-03-20T12:29:14.283Z,11.43
2023-03-20T12:31:46.601Z,9.13
2023-03-20T12:34:21.374Z,7.57
2023-03-20T12:36:50.453Z,8.57
2023-03-20T12:39:28.156Z,9.07
2023-03-20T12:42:19.323Z,7.43
2023-03-20T12:44:46.414Z,9.30
2023-03-20T12:47:44.456Z,7.50
2023-03-20T12:50:24.982Z,11.00
2023-03-20T12:53:25.028Z,8.63
2023-03-20T12:56:19.519Z,7.00
2023-03-20T12:58:57.166Z,7.63
2023-03-20T13:01:43.095Z,6.73
2023-03-20T13:04:25.053Z,6.63
2023-03-20T13:06:58.541Z,6.60
2023-03-20T13:09:35.838Z,7.97
2023-03-20T13:12:17.899Z,7.03
2023-03-20T13:15:07.952Z,9.63
2023-03-20T13:17:46.879Z,5.20
2023-03-20T13:20:27.221Z,7.90
2023-03-20T13:23:13.457Z,4.90
2023-03-20T13:26:25.524Z,4.83
2023-03-20T13:29:08.905Z,9.13
2023-03-20T13:32:16.717Z,6.20
2023-03-20T13:35:04.373Z,4.83
2023-03-20T13:37:36.445Z,13.10
2023-03-20T13:40:17.558Z,7.10
2023-03-20T13:42:50.992Z,9.70
2023-03-20T13:45:37.824Z,9.37
2023-03-20T13:48:24.700Z,5.27
2023-03-20T13:51:29.057Z,4.97
2023-03-20T13:54:14.701Z,6.97
2023-03-20T13:56:59.545Z,6.33
2023-03-20T13:59:44.217Z,4.93
2023-03-20T14:02:33.127Z,6.17
2023-03-20T14:05:09.288Z,6.60
2023-03-20T14:07:38.366Z,6.30
2023-03-20T14:10:24.024Z,6.70
2023-03-20T14:12:51.039Z,6.53
2023-03-20T14:15:20.295Z,5.77
2023-03-20T14:17:49.008Z,5.33
2023-03-20T14:20:33.066Z,3.33
2023-03-20T14:23:00.375Z,9.43
2023-03-20T14:25:33.142Z,5.57
2023-03-20T14:28:07.292Z,6.97
2023-03-20T14:30:39.448Z,5.00
2023-03-20T14:33:17.187Z,7.27
2023-03-20T14:35:51.209Z,5.63
2023-03-20T14:38:27.344Z,4.63
2023-03-20T14:41:16.687Z,4.40
2023-03-20T14:44:15.266Z,6.90
2023-03-20T14:47:04.981Z,6.37
2023-03-20T14:50:07.133Z,6.23
2023-03-20T14:52:52.760Z,6.60
2023-03-20T14:55:32.931Z,4.57
2023-03-20T14:58:04.378Z,6.37
2023-03-20T15:00:44.214Z,7.43
2023-03-20T15:03:15.286Z,4.00
2023-03-20T15:05:42.457Z,4.90
2023-03-20T15:08:34.705Z,7.70
2023-03-20T15:11:06.823Z,8.27
2023-03-20T15:13:34.941Z,5.23
2023-03-20T15:16:07.283Z,7.07
2023-03-20T15:18:50.940Z,4.43
2023-03-20T15:21:23.096Z,4.93
2023-03-20T15:23:49.686Z,7.80
2023-03-20T15:26:19.043Z,5.00
2023-03-20T15:28:46.953Z,3.07
2023-03-20T15:31:35.695Z,7.07
2023-03-20T15:34:07.128Z,4.67
2023-03-20T15:36:36.949Z,6.90
2023-03-20T15:39:25.488Z,9.70
2023-03-20T15:42:01.851Z,4.27
2023-03-20T15:44:35.877Z,4.73
2023-03-20T15:47:11.379Z,10.20
2023-03-20T15:49:43.107Z,8.20
2023-03-20T15:52:27.795Z,7.83
2023-03-20T15:54:56.978Z,4.50
2023-03-20T15:57:34.941Z,5.93
2023-03-20T16:00:07.485Z,7.57
2023-03-20T16:02:36.934Z,6.67
2023-03-20T16:05:04.192Z,6.83
2023-03-20T16:07:32.630Z,5.43
2023-03-20T16:10:00.165Z,8.47
2023-03-20T16:12:27.476Z,6.70
2023-03-20T16:14:54.779Z,4.97
2023-03-20T16:17:23.560Z,6.40
2023-03-20T16:19:51.679Z,6.70
2023-03-20T16:22:18.770Z,6.00
2023-03-20T16:24:50.309Z,7.57
2023-03-20T16:27:25.370Z,6.27
2023-03-20T16:29:53.860Z,7.57
2023-03-20T16:32:21.091Z,7.27
2023-03-20T16:34:51.291Z,7.30
2023-03-20T16:37:26.039Z,6.37
2023-03-20T16:40:04.741Z,10.13
2023-03-20T16:42:31.780Z,8.73
2023-03-20T16:44:58.918Z,8.43
2023-03-20T16:47:35.169Z,8.83
2023-03-20T16:50:11.035Z,9.83
2023-03-20T16:52:40.750Z,8.93
2023-03-20T16:55:16.283Z,9.20
2023-03-20T16:57:47.569Z,8.70
2023-03-20T17:00:29.646Z,7.60
2023-03-20T17:03:24.829Z,8.77
2023-03-20T17:05:59.478Z,10.50
2023-03-20T17:08:37.530Z,8.80
2023-03-20T17:11:16.937Z,13.37
2023-03-20T17:13:44.185Z,8.27
2023-03-20T17:16:15.196Z,9.07
2023-03-20T17:18:42.474Z,9.87
2023-03-20T17:21:10.413Z,8.60
2023-03-20T17:23:37.589Z,8.30
2023-03-20T17:26:04.764Z,10.57
2023-03-20T17:28:34.973Z,8.10
2023-03-20T17:31:05.124Z,12.27
2023-03-20T17:33:33.156Z,12.20
2023-03-20T17:36:00.823Z,7.67
2023-03-20T17:38:28.068Z,9.37
2023-03-20T17:40:55.145Z,7.40
2023-03-20T17:43:22.254Z,14.10
2023-03-20T17:45:49.512Z,11.90
2023-03-20T17:48:21.053Z,8.27
2023-03-20T17:50:50.828Z,8.77
2023-03-20T17:53:24.016Z,6.67
2023-03-20T17:55:52.206Z,7.83
2023-03-20T17:58:22.391Z,6.00
2023-03-20T18:00:50.418Z,10.30
2023-03-20T18:03:18.103Z,8.77
2023-03-20T18:05:49.949Z,6.17
2023-03-20T18:08:21.132Z,5.57
2023-03-20T18:10:53.010Z,6.57
2023-03-20T18:13:21.266Z,8.80
2023-03-20T18:15:53.146Z,5.70
2023-03-20T18:18:23.748Z,4.70
2023-03-20T18:20:52.153Z,5.67
2023-03-20T18:23:19.290Z,7.57
2023-03-20T18:25:46.488Z,6.83
2023-03-20T18:28:20.498Z,6.93
2023-03-20T18:30:48.651Z,7.60
2023-03-20T18:33:16.130Z,6.20
2023-03-20T18:35:43.377Z,7.77
2023-03-20T18:38:13.369Z,7.77
2023-03-20T18:40:42.485Z,6.67
2023-03-20T18:43:10.624Z,6.17
2023-03-20T18:45:39.049Z,5.87
2023-03-20T18:48:06.990Z,8.67
2023-03-20T18:50:37.661Z,7.03
2023-03-20T18:53:05.951Z,6.03
2023-03-20T18:55:32.829Z,7.33
2023-03-20T18:58:03.457Z,9.37
2023-03-20T19:00:37.895Z,5.13
2023-03-20T19:03:05.331Z,6.73
2023-03-20T19:05:32.943Z,5.67
2023-03-20T19:08:00.846Z,5.67
2023-03-20T19:10:37.161Z,7.47
2023-03-20T19:13:06.293Z,13.63
2023-03-20T19:15:38.659Z,9.37
2023-03-20T19:18:39.890Z,7.80
2023-03-20T19:21:07.091Z,12.90
2023-03-20T19:23:34.449Z,5.83
2023-03-20T19:26:01.527Z,5.07
2023-03-20T19:28:40.670Z,10.33
2023-03-20T19:31:09.758Z,8.33
2023-03-20T19:33:38.261Z,7.13
2023-03-20T19:36:06.586Z,7.10
2023-03-20T19:38:34.073Z,7.80
2023-03-20T19:41:02.502Z,7.40
2023-03-20T19:43:29.464Z,7.87
2023-03-20T19:45:59.323Z,8.33
2023-03-20T19:48:46.358Z,9.20
2023-03-20T19:51:17.030Z,9.27
2023-03-20T19:53:44.943Z,6.90
2023-03-20T19:56:12.479Z,6.63
2023-03-20T19:58:40.314Z,7.00
2023-03-20T20:01:15.093Z,6.97
2023-03-20T20:03:42.775Z,10.20
2023-03-20T20:06:10.028Z,9.03
2023-03-20T20:08:48.345Z,7.03
2023-03-20T20:11:19.427Z,7.93
2023-03-20T20:14:07.094Z,7.17
2023-03-20T20:16:34.400Z,5.67
2023-03-20T20:19:01.483Z,8.10
2023-03-20T20:22:13.191Z,8.73
2023-03-20T20:24:16.301Z,7.87
2023-03-20T20:26:53.213Z,9.43
2023-03-20T20:29:21.938Z,9.63
2023-03-20T20:31:49.074Z,9.93
2023-03-20T20:39:50.484Z,7.97
2023-03-20T20:42:17.609Z,6.50
2023-03-20T20:44:44.596Z,15.63
2023-03-20T20:47:12.043Z,7.03
2023-03-20T20:49:39.223Z,11.20
2023-03-20T20:52:06.406Z,10.53
2023-03-20T20:54:34.115Z,10.13
2023-03-20T20:57:01.459Z,7.37
2023-03-20T20:59:28.583Z,6.70
2023-03-20T21:01:56.407Z,5.73
2023-03-20T21:04:23.807Z,9.73
2023-03-20T21:07:08.845Z,6.60
2023-03-20T21:09:37.048Z,7.00
2023-03-20T21:12:04.504Z,6.40
2023-03-20T21:14:31.590Z,9.63
2023-03-20T21:17:02.188Z,10.27
2023-03-20T21:19:30.396Z,8.90
2023-03-20T21:21:57.340Z,10.80
2023-03-20T21:24:33.858Z,12.80
2023-03-20T21:27:06.879Z,11.73
2023-03-20T21:29:34.152Z,10.00
2023-03-20T21:32:01.355Z,8.90
2023-03-20T21:34:29.025Z,6.67
2023-03-20T21:36:57.854Z,6.47
2023-03-20T21:39:27.479Z,9.70
2023-03-20T21:41:54.583Z,10.87
2023-03-20T21:44:57.419Z,11.30
2023-03-20T21:51:21.861Z,7.27
2023-03-20T21:53:18.095Z,6.80
2023-03-20T21:56:31.464Z,13.60
2023-03-20T22:01:53.923Z,14.30
2023-03-20T22:13:01.523Z,10.07
2023-03-20T22:18:28.705Z,10.33
2023-03-20T22:21:23.924Z,9.30
2023-03-20T22:24:20.521Z,9.60
2023-03-20T22:27:18.896Z,7.50
2023-03-20T22:32:35.249Z,9.00
2023-03-20T22:38:08.963Z,9.70
2023-03-20T22:40:57.482Z,10.87
2023-03-20T22:43:59.682Z,10.23
2023-03-20T22:45:58.567Z,9.90
2023-03-20T22:48:32.826Z,11.23
2023-03-20T22:50:59.878Z,10.63
2023-03-20T22:53:26.960Z,9.60
2023-03-20T22:55:54.013Z,8.60
2023-03-20T22:58:21.244Z,9.50
2023-03-20T23:00:48.279Z,8.50
2023-03-20T23:03:29.630Z,9.40
2023-03-20T23:06:10.738Z,7.87
2023-03-20T23:08:48.086Z,10.37
2023-03-20T23:11:17.783Z,9.00
2023-03-20T23:13:45.108Z,13.67
2023-03-20T23:16:11.845Z,9.20
2023-03-20T23:18:39.145Z,14.70
2023-03-20T23:21:06.232Z,10.43
2023-03-20T23:23:33.290Z,17.03
2023-03-20T23:26:12.501Z,11.10
2023-03-20T23:28:40.686Z,9.73
2023-03-20T23:31:23.051Z,10.83
2023-03-20T23:33:55.517Z,9.53
2023-03-20T23:36:35.273Z,12.20
2023-03-20T23:39:05.608Z,12.30
2023-03-20T23:42:01.877Z,12.10
2023-03-20T23:44:19.263Z,11.90
2023-03-20T23:46:48.169Z,11.57
2023-03-20T23:49:16.306Z,12.13
2023-03-20T23:51:43.368Z,11.93
2023-03-20T23:54:10.174Z,17.00
2023-03-20T23:56:37.286Z,13.90
2023-03-20T23:59:18.332Z,12.90
